Time;durP1;ratioP1;P1;durP2;ratioP2;P2;SDS_P1;SDS_P2;PMS_P1;PMS_P2;Temp;Humidity;BMP_temperature;BMP_pressure;BME280_temperature;BME280_humidity;BME280_pressure;Samples;Min_cycle;Max_cycle;Signal;HPM_P1;HPM_P2
2022/06/11 00:01:40;;;;;;;10.63;5.25;;;21.60;66.60;;;;;;5025122;28;20044;-62
2022/06/11 00:04:09;;;;;;;11.75;5.07;;;21.60;66.70;;;;;;5029278;28;20039;-62
2022/06/11 00:06:38;;;;;;;12.50;4.65;;;21.50;66.70;;;;;;5046896;28;20449;-62
2022/06/11 00:09:04;;;;;;;13.00;5.00;;;21.50;66.80;;;;;;5025488;28;20029;-63
2022/06/11 00:11:30;;;;;;;10.18;4.75;;;21.50;66.90;;;;;;5044175;28;20060;-62
2022/06/11 00:13:56;;;;;;;11.15;5.18;;;21.50;67.00;;;;;;5026539;28;20055;-63
2022/06/11 00:16:22;;;;;;;17.65;6.15;;;21.50;67.10;;;;;;5027411;28;20121;-62
2022/06/11 00:18:48;;;;;;;14.57;5.32;;;21.40;67.10;;;;;;5027121;28;20045;-62
2022/06/11 00:21:14;;;;;;;10.65;6.72;;;21.40;67.10;;;;;;5029013;28;20083;-61
2022/06/11 00:23:40;;;;;;;18.52;6.07;;;21.40;67.30;;;;;;5041643;28;20508;-62
2022/06/11 00:26:06;;;;;;;14.05;5.95;;;21.40;67.50;;;;;;5027403;28;20056;-62
2022/06/11 00:28:32;;;;;;;12.23;5.60;;;21.30;67.50;;;;;;5028204;28;20481;-62
2022/06/11 00:30:57;;;;;;;12.50;5.43;;;21.30;67.60;;;;;;5029198;28;20083;-62
2022/06/11 00:33:23;;;;;;;12.32;5.47;;;21.30;67.70;;;;;;5044855;28;20033;-62
2022/06/11 00:35:48;;;;;;;13.07;5.32;;;21.20;67.70;;;;;;5024245;28;20053;-62
2022/06/11 00:38:14;;;;;;;12.35;4.80;;;21.20;67.90;;;;;;5025202;28;20037;-62
2022/06/11 00:40:41;;;;;;;8.25;4.47;;;21.20;68.00;;;;;;5025017;28;20036;-62
2022/06/11 00:43:07;;;;;;;10.73;4.72;;;21.10;68.10;;;;;;5027512;28;20167;-62
2022/06/11 00:45:44;;;;;;;10.13;5.25;;;21.10;68.30;;;;;;5024517;28;20047;-63
2022/06/11 00:48:40;;;;;;;9.20;4.85;;;21.00;68.30;;;;;;5028324;28;20025;-62
2022/06/11 00:51:12;;;;;;;11.80;4.43;;;21.00;68.30;;;;;;5026956;28;20033;-62
2022/06/11 00:53:46;;;;;;;9.35;4.90;;;21.00;68.40;;;;;;5025092;28;20029;-62
2022/06/11 00:56:19;;;;;;;10.80;4.30;;;21.10;68.50;;;;;;5046345;28;20165;-62
2022/06/11 00:58:45;;;;;;;6.70;4.63;;;21.00;68.50;;;;;;5026706;28;20496;-63
2022/06/11 01:01:13;;;;;;;7.80;4.30;;;21.00;68.50;;;;;;5027926;28;20037;-61
2022/06/11 01:03:40;;;;;;;8.50;4.63;;;20.90;68.60;;;;;;5027067;28;20480;-63
2022/06/11 01:06:10;;;;;;;9.32;4.40;;;20.90;68.70;;;;;;5024182;28;20155;-62
2022/06/11 01:08:51;;;;;;;7.85;3.88;;;20.80;68.90;;;;;;5027141;28;20025;-62
2022/06/11 01:11:54;;;;;;;6.32;3.85;;;20.80;68.90;;;;;;5027958;28;20056;-63
2022/06/11 01:14:41;;;;;;;13.27;3.58;;;20.80;69.00;;;;;;5027607;28;20082;-62
2022/06/11 01:17:22;;;;;;;11.38;4.00;;;20.70;69.10;;;;;;5041568;28;20139;-62
2022/06/11 01:20:03;;;;;;;8.55;4.25;;;20.70;69.30;;;;;;5042157;28;20025;-62
2022/06/11 01:22:41;;;;;;;5.82;3.83;;;20.70;69.30;;;;;;5024219;28;20014;-62
2022/06/11 01:25:12;;;;;;;12.50;4.70;;;20.70;69.30;;;;;;5044226;28;20029;-61
2022/06/11 01:27:46;;;;;;;11.23;5.45;;;20.70;69.50;;;;;;5044649;28;20527;-62
2022/06/11 01:30:28;;;;;;;11.07;5.45;;;20.60;69.60;;;;;;5024768;28;20181;-62
2022/06/11 01:33:21;;;;;;;11.38;5.45;;;20.50;69.70;;;;;;5026605;28;20071;-61
2022/06/11 01:35:56;;;;;;;10.00;5.13;;;20.60;70.00;;;;;;5010087;28;20116;-62
2022/06/11 01:38:32;;;;;;;9.00;5.13;;;20.50;70.00;;;;;;5027902;28;20487;-62
2022/06/11 01:41:26;;;;;;;12.27;4.68;;;20.50;70.00;;;;;;5032964;28;20037;-62
2022/06/11 01:43:54;;;;;;;10.77;5.00;;;20.40;70.10;;;;;;5040565;28;20083;-62
2022/06/11 01:46:23;;;;;;;10.27;4.70;;;20.40;70.20;;;;;;5025813;28;20044;-62
2022/06/11 01:49:00;;;;;;;11.25;4.68;;;20.40;70.40;;;;;;5026595;28;20414;-62
2022/06/11 01:51:56;;;;;;;7.20;4.43;;;20.40;70.40;;;;;;5045209;28;20538;-62
2022/06/11 01:54:25;;;;;;;;;;;20.40;70.50;;;;;;5027376;28;20028;-63
2022/06/11 01:57:18;;;;;;;7.05;4.13;;;20.40;70.60;;;;;;5043459;28;19909;-62
2022/06/11 01:59:49;;;;;;;6.20;4.47;;;20.40;70.70;;;;;;5026500;28;20100;-61
2022/06/11 02:02:33;;;;;;;9.23;4.40;;;20.40;70.60;;;;;;5011471;28;20029;-63
2022/06/11 02:05:11;;;;;;;6.18;4.30;;;20.40;70.60;;;;;;5044774;28;20033;-62
2022/06/11 02:07:56;;;;;;;8.25;4.15;;;20.30;70.70;;;;;;5026384;28;20044;-61
2022/06/11 02:10:51;;;;;;;5.97;4.05;;;20.30;70.80;;;;;;5023601;28;20037;-62
2022/06/11 02:13:53;;;;;;;7.95;3.72;;;20.30;70.90;;;;;;5028196;28;20378;-63
2022/06/11 02:16:41;;;;;;;10.07;4.50;;;20.20;71.20;;;;;;5015639;28;20067;-63
2022/06/11 02:19:12;;;;;;;6.70;3.90;;;20.20;71.20;;;;;;5005195;28;20021;-62
2022/06/11 02:21:49;;;;;;;5.03;3.50;;;20.20;71.20;;;;;;4992977;28;20036;-62
2022/06/11 02:24:20;;;;;;;7.57;3.88;;;20.20;71.50;;;;;;5024333;28;20037;-63
2022/06/11 02:26:49;;;;;;;7.28;3.67;;;20.10;71.50;;;;;;5018847;28;20107;-63
2022/06/11 02:29:17;;;;;;;8.20;3.65;;;20.10;71.60;;;;;;5025011;28;20366;-61
2022/06/11 02:31:45;;;;;;;8.27;3.40;;;20.10;71.70;;;;;;5026894;28;20060;-62
2022/06/11 02:34:13;;;;;;;5.80;3.80;;;20.00;71.80;;;;;;5021357;28;20132;-61
2022/06/11 02:36:48;;;;;;;6.63;3.67;;;20.00;71.90;;;;;;5007465;28;20075;-62
2022/06/11 02:39:14;;;;;;;;;;;20.00;71.90;;;;;;5009274;28;20122;-62
2022/06/11 02:41:42;;;;;;;4.47;3.13;;;20.00;72.00;;;;;;5026561;28;19979;-62
2022/06/11 02:44:07;;;;;;;7.65;3.92;;;19.90;72.00;;;;;;5023609;28;20029;-62
2022/06/11 02:46:43;;;;;;;6.85;4.30;;;19.90;72.10;;;;;;5003396;28;20029;-62
2022/06/11 02:49:17;;;;;;;7.20;5.30;;;19.90;72.20;;;;;;5039344;28;20081;-63
2022/06/11 02:51:42;;;;;;;9.10;5.15;;;19.90;72.30;;;;;;5025392;28;20040;-62
2022/06/11 02:54:08;;;;;;;6.78;4.50;;;19.80;72.30;;;;;;5042573;28;20029;-62
2022/06/11 02:56:34;;;;;;;7.22;3.80;;;19.80;72.30;;;;;;5044012;28;20040;-63
2022/06/11 02:58:59;;;;;;;11.02;4.07;;;19.90;72.30;;;;;;5040727;28;20025;-62
2022/06/11 03:01:25;;;;;;;7.10;4.32;;;19.80;72.30;;;;;;5007453;28;20056;-61
2022/06/11 03:03:51;;;;;;;7.07;3.70;;;19.90;72.30;;;;;;5022852;28;20071;-61
2022/06/11 03:06:18;;;;;;;6.03;4.28;;;19.80;72.30;;;;;;5042744;28;20032;-62
2022/06/11 03:08:43;;;;;;;6.18;3.95;;;19.80;72.40;;;;;;5042607;28;20024;-62
2022/06/11 03:11:09;;;;;;;10.65;4.07;;;19.70;72.50;;;;;;5024129;28;20029;-63
2022/06/11 03:13:34;;;;;;;8.40;3.72;;;19.70;72.60;;;;;;5023255;28;20500;-62
2022/06/11 03:16:00;;;;;;;6.05;3.38;;;19.70;72.70;;;;;;5023132;28;20083;-62
2022/06/11 03:18:26;;;;;;;11.38;4.13;;;19.60;72.70;;;;;;5024218;28;20052;-62
2022/06/11 03:20:52;;;;;;;6.18;3.38;;;19.60;72.80;;;;;;5024471;28;20029;-62
2022/06/11 03:23:17;;;;;;;7.45;3.70;;;19.50;72.80;;;;;;5024892;28;20136;-62
2022/06/11 03:25:43;;;;;;;7.43;3.75;;;19.60;72.90;;;;;;5024641;28;20032;-62
2022/06/11 03:28:27;;;;;;;8.45;3.80;;;19.50;73.00;;;;;;5041644;28;20041;-61
2022/06/11 03:30:52;;;;;;;8.50;4.28;;;19.50;73.00;;;;;;5041207;28;20031;-61
2022/06/11 03:33:18;;;;;;;5.47;3.35;;;19.50;73.10;;;;;;5024418;28;20059;-62
2022/06/11 03:35:44;;;;;;;5.93;3.85;;;19.40;73.10;;;;;;5007265;28;20036;-61
2022/06/11 03:38:10;;;;;;;5.13;3.45;;;19.40;73.20;;;;;;5023213;28;20532;-62
2022/06/11 03:40:36;;;;;;;4.55;3.15;;;19.40;73.30;;;;;;5006950;28;20029;-62
2022/06/11 03:43:01;;;;;;;5.40;3.35;;;19.40;73.40;;;;;;5022562;28;20029;-61
2022/06/11 03:45:28;;;;;;;8.73;3.85;;;19.40;73.40;;;;;;5022099;28;20032;-62
2022/06/11 03:47:53;;;;;;;7.32;3.38;;;19.40;73.30;;;;;;5023187;28;20056;-61
2022/06/11 03:50:24;;;;;;;4.45;3.13;;;19.40;73.40;;;;;;5041060;28;20048;-61
2022/06/11 03:52:50;;;;;;;6.00;3.17;;;19.40;73.50;;;;;;5023010;28;20037;-62
2022/06/11 03:55:15;;;;;;;6.20;3.20;;;19.30;73.40;;;;;;5041619;28;20625;-62
2022/06/11 03:57:41;;;;;;;6.38;3.03;;;19.30;73.50;;;;;;5023307;28;20476;-63
2022/06/11 04:00:09;;;;;;;4.80;3.30;;;19.30;73.60;;;;;;5025710;28;20033;-62
2022/06/11 04:02:35;;;;;;;5.22;3.25;;;19.20;73.70;;;;;;5024872;28;20564;-62
2022/06/11 04:05:00;;;;;;;6.90;3.10;;;19.30;73.80;;;;;;5023460;28;20039;-61
2022/06/11 04:07:26;;;;;;;5.53;3.33;;;19.20;73.70;;;;;;5041846;28;20096;-62
2022/06/11 04:09:51;;;;;;;3.53;2.67;;;19.20;73.80;;;;;;5020185;28;20157;-62
2022/06/11 04:12:18;;;;;;;3.38;2.80;;;19.20;74.00;;;;;;5042573;28;20164;-62
2022/06/11 04:14:44;;;;;;;4.13;2.75;;;19.10;74.00;;;;;;5039996;28;20443;-63
2022/06/11 04:17:27;;;;;;;4.47;2.83;;;19.10;74.10;;;;;;5022756;28;20044;-62
2022/06/11 04:19:53;;;;;;;7.65;3.28;;;19.10;74.20;;;;;;5007098;28;20037;-63
2022/06/11 04:22:19;;;;;;;5.45;3.05;;;19.10;74.30;;;;;;5023616;28;20037;-61
2022/06/11 04:24:44;;;;;;;6.18;2.70;;;19.00;74.30;;;;;;5023927;28;20052;-62
2022/06/11 04:27:11;;;;;;;6.35;3.25;;;19.00;74.40;;;;;;5024072;28;20090;-63
2022/06/11 04:29:39;;;;;;;3.20;2.88;;;19.00;74.40;;;;;;5023284;28;20086;-62
2022/06/11 04:32:06;;;;;;;5.70;3.08;;;19.00;74.50;;;;;;5023525;28;20043;-62
2022/06/11 04:34:31;;;;;;;4.10;2.83;;;19.00;74.50;;;;;;5021511;28;20048;-63
2022/06/11 04:36:57;;;;;;;4.95;2.90;;;19.00;74.50;;;;;;5022178;28;20048;-62
2022/06/11 04:39:26;;;;;;;5.57;2.85;;;19.00;74.50;;;;;;5023359;28;20057;-62
2022/06/11 04:41:51;;;;;;;7.43;3.60;;;19.00;74.60;;;;;;5025575;28;20031;-61
2022/06/11 04:44:17;;;;;;;3.70;2.50;;;18.90;74.50;;;;;;5022184;28;20021;-62
2022/06/11 04:46:42;;;;;;;4.80;2.85;;;18.90;74.60;;;;;;5022846;28;20159;-63
2022/06/11 04:49:08;;;;;;;5.00;2.90;;;18.90;74.70;;;;;;5025450;28;20033;-61
2022/06/11 04:51:34;;;;;;;4.38;2.95;;;18.90;74.80;;;;;;5029469;28;20378;-61
2022/06/11 04:53:59;;;;;;;5.70;2.78;;;18.90;74.80;;;;;;5027729;28;20119;-63
2022/06/11 04:56:26;;;;;;;4.13;2.70;;;19.00;74.70;;;;;;5043741;28;20110;-62
2022/06/11 04:58:52;;;;;;;4.80;2.85;;;18.90;74.60;;;;;;5025989;28;20489;-62
2022/06/11 05:01:17;;;;;;;7.00;3.03;;;18.90;74.60;;;;;;5027869;28;20118;-62
2022/06/11 05:03:43;;;;;;;4.50;2.85;;;18.90;74.60;;;;;;5028272;28;20044;-62
2022/06/11 05:06:09;;;;;;;3.88;2.90;;;18.90;74.80;;;;;;5011057;28;20461;-63
2022/06/11 05:08:34;;;;;;;5.43;2.80;;;18.90;74.80;;;;;;5026812;28;20040;-62
2022/06/11 05:11:00;;;;;;;6.30;2.80;;;18.90;75.00;;;;;;5024246;28;20025;-62
2022/06/11 05:13:25;;;;;;;5.20;2.90;;;18.80;74.90;;;;;;5027276;28;20043;-62
2022/06/11 05:15:52;;;;;;;5.25;2.55;;;18.80;75.00;;;;;;5046328;28;20029;-62
2022/06/11 05:18:18;;;;;;;7.65;3.00;;;18.80;75.20;;;;;;5026113;28;20063;-63
2022/06/11 05:20:44;;;;;;;4.18;2.72;;;18.80;75.20;;;;;;5027863;28;20036;-62
2022/06/11 05:23:09;;;;;;;5.00;2.65;;;18.80;75.20;;;;;;5024806;28;20110;-62
2022/06/11 05:25:35;;;;;;;3.85;2.70;;;18.80;75.20;;;;;;5025538;28;20552;-62
2022/06/11 05:28:02;;;;;;;4.90;2.92;;;18.80;75.30;;;;;;5026022;28;20588;-62
2022/06/11 05:30:30;;;;;;;4.75;2.90;;;18.80;75.30;;;;;;5044958;28;20384;-63
2022/06/11 05:32:55;;;;;;;3.83;2.58;;;18.80;75.30;;;;;;5027830;28;20017;-63
2022/06/11 05:35:25;;;;;;;7.90;3.17;;;18.80;75.30;;;;;;5009493;28;20037;-63
2022/06/11 05:37:52;;;;;;;5.35;2.85;;;18.80;75.30;;;;;;5042882;28;20404;-62
2022/06/11 05:40:21;;;;;;;3.20;2.78;;;18.70;75.20;;;;;;5011711;28;20021;-62
2022/06/11 05:42:49;;;;;;;4.43;2.60;;;18.80;75.30;;;;;;5028830;28;20042;-63
2022/06/11 05:45:17;;;;;;;3.53;2.60;;;18.80;75.40;;;;;;5025114;28;20025;-62
2022/06/11 05:47:43;;;;;;;4.90;2.88;;;18.80;75.40;;;;;;5009858;28;20107;-63
2022/06/11 05:50:11;;;;;;;30.10;4.53;;;18.80;75.50;;;;;;5023614;28;20447;-63
2022/06/11 05:52:38;;;;;;;23.08;5.30;;;18.80;75.40;;;;;;5025973;28;20028;-63
2022/06/11 05:55:04;;;;;;;17.48;4.18;;;18.70;75.20;;;;;;5025926;28;20044;-63
2022/06/11 05:57:29;;;;;;;25.77;3.90;;;18.70;75.20;;;;;;5026981;28;20032;-63
2022/06/11 06:00:02;;;;;;;20.13;5.70;;;18.80;75.30;;;;;;5043720;28;20025;-62
2022/06/11 06:02:27;;;;;;;16.08;6.13;;;18.80;75.70;;;;;;5025107;28;20025;-62
2022/06/11 06:04:53;;;;;;;18.98;5.43;;;18.80;75.80;;;;;;5024309;28;20496;-63
2022/06/11 06:07:19;;;;;;;18.17;4.75;;;18.70;75.70;;;;;;5027386;28;20071;-63
2022/06/11 06:09:44;;;;;;;16.23;4.63;;;18.70;75.80;;;;;;5023890;28;20040;-62
2022/06/11 06:12:10;;;;;;;13.75;4.55;;;18.70;75.70;;;;;;5044215;28;20032;-62
2022/06/11 06:14:35;;;;;;;16.90;4.43;;;18.70;75.70;;;;;;5042602;28;20381;-63
2022/06/11 06:17:01;;;;;;;7.78;4.30;;;18.80;75.80;;;;;;5023627;28;20045;-61
2022/06/11 06:19:26;;;;;;;19.08;4.80;;;18.70;75.90;;;;;;5004476;28;20071;-63
2022/06/11 06:21:52;;;;;;;20.08;4.43;;;18.70;76.10;;;;;;5027556;28;20515;-62
2022/06/11 06:24:17;;;;;;;13.18;4.75;;;18.70;76.00;;;;;;5024961;28;20158;-61
2022/06/11 06:26:43;;;;;;;19.05;4.60;;;18.70;76.00;;;;;;5044550;28;20025;-63
2022/06/11 06:29:08;;;;;;;11.60;4.20;;;18.70;76.10;;;;;;5041870;28;20036;-62
2022/06/11 06:31:34;;;;;;;10.48;4.05;;;18.70;76.00;;;;;;5023123;28;20074;-63
2022/06/11 06:34:01;;;;;;;11.05;4.25;;;18.70;76.10;;;;;;5043477;28;20499;-62
2022/06/11 06:36:28;;;;;;;15.98;4.00;;;18.70;76.20;;;;;;5023088;28;20048;-61
2022/06/11 06:38:54;;;;;;;15.95;4.20;;;18.70;76.30;;;;;;5040099;28;20121;-62
2022/06/11 06:41:20;;;;;;;11.65;4.15;;;18.80;77.20;;;;;;5004605;28;20428;-61
2022/06/11 06:43:45;;;;;;;14.38;4.43;;;18.80;76.80;;;;;;5022721;28;20037;-62
2022/06/11 06:46:11;;;;;;;10.60;3.80;;;18.70;76.80;;;;;;5021429;28;20060;-61
2022/06/11 06:48:36;;;;;;;12.10;3.70;;;18.80;77.00;;;;;;5024347;28;20048;-63
2022/06/11 06:51:03;;;;;;;9.60;3.42;;;18.80;77.00;;;;;;5023765;28;20025;-62
2022/06/11 06:53:28;;;;;;;12.18;3.55;;;18.70;77.10;;;;;;5021245;28;20051;-62
2022/06/11 06:55:54;;;;;;;25.02;4.13;;;18.80;77.20;;;;;;5016392;28;20045;-61
2022/06/11 06:58:19;;;;;;;8.90;3.88;;;18.70;77.20;;;;;;5021100;28;20330;-62
2022/06/11 07:00:46;;;;;;;10.70;3.90;;;18.70;77.30;;;;;;5019897;28;20028;-63
2022/06/11 07:03:12;;;;;;;14.18;3.63;;;18.70;77.40;;;;;;5040199;28;20365;-63
2022/06/11 07:05:38;;;;;;;11.85;3.60;;;18.70;77.50;;;;;;5021781;28;20170;-62
2022/06/11 07:08:04;;;;;;;11.93;3.40;;;18.70;77.50;;;;;;5003039;28;20483;-63
2022/06/11 07:10:29;;;;;;;14.27;3.45;;;18.70;77.60;;;;;;5036360;28;20060;-62
2022/06/11 07:12:55;;;;;;;12.93;3.63;;;18.70;77.60;;;;;;5006118;28;20033;-63
2022/06/11 07:15:20;;;;;;;10.98;3.53;;;18.80;77.60;;;;;;5003616;28;20370;-63
2022/06/11 07:17:55;;;;;;;12.50;2.97;;;18.80;77.70;;;;;;5039078;28;20033;-63
2022/06/11 07:20:23;;;;;;;12.27;3.63;;;18.70;77.70;;;;;;5035009;28;20056;-62
2022/06/11 07:22:59;;;;;;;16.02;3.60;;;18.80;77.80;;;;;;5015697;28;20080;-63
2022/06/11 07:25:25;;;;;;;11.07;3.65;;;18.80;78.00;;;;;;5038026;28;20021;-63
2022/06/11 07:27:54;;;;;;;12.52;3.30;;;18.80;78.00;;;;;;5019025;28;20103;-63
2022/06/11 07:30:22;;;;;;;10.02;3.08;;;18.80;78.10;;;;;;5015548;28;20052;-63
2022/06/11 07:32:49;;;;;;;11.70;3.65;;;18.80;78.30;;;;;;5022350;28;20494;-62
2022/06/11 07:35:15;;;;;;;10.23;3.92;;;18.80;78.40;;;;;;5006466;28;20033;-63
2022/06/11 07:37:41;;;;;;;10.30;3.55;;;18.90;78.20;;;;;;5022061;28;20080;-62
2022/06/11 07:40:08;;;;;;;9.65;3.67;;;18.90;78.50;;;;;;5004211;28;20025;-62
2022/06/11 07:42:33;;;;;;;10.02;2.88;;;18.90;78.70;;;;;;5022213;28;20025;-62
2022/06/11 07:44:59;;;;;;;14.45;3.22;;;18.90;78.70;;;;;;5031280;28;20483;-62
2022/06/11 07:50:09;;;;;;;24.17;4.05;;;18.90;79.20;;;;;;5019966;28;20040;-63
2022/06/11 07:52:34;;;;;;;16.90;3.42;;;19.00;79.40;;;;;;5019546;28;20048;-62
2022/06/11 07:55:00;;;;;;;16.40;3.70;;;19.00;78.90;;;;;;5016500;28;20880;-64
2022/06/11 07:57:27;;;;;;;19.35;3.95;;;18.90;79.30;;;;;;5021210;28;20051;-67
2022/06/11 07:59:52;;;;;;;23.75;4.10;;;19.00;79.60;;;;;;5015211;28;20030;-64
2022/06/11 08:02:18;;;;;;;20.88;4.45;;;19.00;79.60;;;;;;5031383;28;20048;-66
2022/06/11 08:04:43;;;;;;;20.83;4.00;;;19.00;79.80;;;;;;5029046;28;20123;-64
2022/06/11 08:07:09;;;;;;;21.08;4.45;;;19.00;80.10;;;;;;5029549;28;20093;-64
2022/06/11 08:09:34;;;;;;;15.73;3.22;;;19.10;80.60;;;;;;5012831;28;20048;-64
2022/06/11 08:11:59;;;;;;;20.55;4.53;;;19.10;80.30;;;;;;5015669;28;20583;-64
2022/06/11 08:14:25;;;;;;;24.00;4.68;;;19.10;80.30;;;;;;4997265;28;20512;-65
2022/06/11 08:16:50;;;;;;;41.22;5.68;;;19.00;80.60;;;;;;4985618;28;20029;-63
2022/06/11 08:19:16;;;;;;;52.85;7.57;;;19.10;81.00;;;;;;5030330;28;20025;-64
2022/06/11 08:21:42;;;;;;;79.50;7.45;;;19.10;81.20;;;;;;5035882;28;20088;-65
2022/06/11 08:24:08;;;;;;;42.75;6.63;;;19.20;81.80;;;;;;5035126;28;20040;-64
2022/06/11 08:26:34;;;;;;;40.78;6.18;;;19.20;82.00;;;;;;5010388;28;20042;-64
2022/06/11 08:28:59;;;;;;;51.72;7.95;;;19.30;81.50;;;;;;5008724;28;20036;-64
2022/06/11 08:31:25;;;;;;;36.28;6.20;;;19.30;81.90;;;;;;4995538;28;20107;-65
2022/06/11 08:33:50;;;;;;;48.50;6.93;;;19.30;82.00;;;;;;5015000;28;20179;-64
2022/06/11 08:36:16;;;;;;;38.25;6.78;;;19.40;82.30;;;;;;5010195;28;20056;-64
2022/06/11 08:38:41;;;;;;;39.70;6.82;;;19.40;82.40;;;;;;5012020;28;20033;-65
2022/06/11 08:41:19;;;;;;;60.97;8.32;;;19.50;82.40;;;;;;5002386;28;20128;-62
2022/06/11 08:44:00;;;;;;;313.30;32.08;;;19.50;82.10;;;;;;4997827;28;20036;-63
2022/06/11 08:46:33;;;;;;;103.25;10.82;;;19.50;82.00;;;;;;5012926;28;20042;-61
2022/06/11 08:49:09;;;;;;;125.82;13.82;;;19.50;82.40;;;;;;4997112;28;20589;-62
2022/06/11 08:51:42;;;;;;;97.13;11.70;;;19.60;82.50;;;;;;4996373;28;20418;-63
2022/06/11 08:54:10;;;;;;;80.97;10.00;;;19.70;82.40;;;;;;5011831;28;20059;-63
2022/06/11 08:56:38;;;;;;;95.10;13.15;;;19.70;82.20;;;;;;5008413;28;20033;-62
2022/06/11 08:59:10;;;;;;;94.30;12.43;;;19.70;81.90;;;;;;5003144;28;20095;-63
2022/06/11 09:01:46;;;;;;;93.00;11.77;;;19.80;81.90;;;;;;5002869;28;20044;-63
2022/06/11 09:04:34;;;;;;;121.95;13.80;;;19.80;81.60;;;;;;5001870;28;20064;-63
2022/06/11 09:07:19;;;;;;;157.30;16.63;;;19.90;81.80;;;;;;5004170;28;20037;-62
2022/06/11 09:09:48;;;;;;;133.63;16.35;;;19.90;81.20;;;;;;5000551;28;20026;-62
2022/06/11 09:12:40;;;;;;;154.95;15.98;;;20.00;81.10;;;;;;5004959;28;20025;-62
2022/06/11 09:15:26;;;;;;;99.13;13.45;;;20.00;80.90;;;;;;5012687;28;20029;-62
2022/06/11 09:18:13;;;;;;;92.45;11.80;;;20.00;80.60;;;;;;5009323;28;20413;-63
2022/06/11 09:21:10;;;;;;;87.00;11.40;;;20.10;80.10;;;;;;5011751;28;20550;-62
2022/06/11 09:23:52;;;;;;;103.15;13.40;;;20.10;79.90;;;;;;5016016;28;20457;-62
2022/06/11 09:26:46;;;;;;;114.00;15.07;;;20.10;79.50;;;;;;5010549;28;20103;-63
2022/06/11 09:29:27;;;;;;;129.55;16.88;;;20.30;79.20;;;;;;4995781;28;20038;-62
2022/06/11 09:31:56;;;;;;;123.80;17.05;;;20.30;78.90;;;;;;5007307;28;20088;-62
2022/06/11 09:34:27;;;;;;;158.82;17.70;;;20.30;78.60;;;;;;5011990;28;20041;-62
2022/06/11 09:37:15;;;;;;;165.43;18.30;;;20.40;78.40;;;;;;5009117;28;20060;-63
2022/06/11 09:39:56;;;;;;;137.77;13.88;;;20.40;78.10;;;;;;5009142;28;20029;-61
2022/06/11 09:43:08;;;;;;;162.88;18.10;;;20.40;77.10;;;;;;5013524;28;20167;-62
2022/06/11 09:45:47;;;;;;;138.02;15.57;;;20.50;77.00;;;;;;4977362;28;20986;-62
2022/06/11 09:48:37;;;;;;;102.18;15.23;;;20.50;76.20;;;;;;4963376;28;20125;-63
2022/06/11 09:51:06;;;;;;;136.75;15.23;;;20.50;75.60;;;;;;5000306;28;20808;-61
2022/06/11 09:53:54;;;;;;;136.10;16.83;;;20.60;75.70;;;;;;5014406;28;20037;-63
2022/06/11 09:56:20;;;;;;;150.48;16.83;;;20.60;75.40;;;;;;5005534;28;20026;-62
2022/06/11 09:59:06;;;;;;;155.70;17.48;;;20.70;75.30;;;;;;5016646;28;20026;-62
2022/06/11 10:01:48;;;;;;;136.30;16.17;;;20.70;74.80;;;;;;4998845;28;20029;-62
2022/06/11 10:04:14;;;;;;;120.55;15.85;;;20.70;74.30;;;;;;5010333;28;20120;-62
2022/06/11 10:06:52;;;;;;;110.30;15.23;;;20.80;73.90;;;;;;5015657;28;20025;-63
2022/06/11 10:09:22;;;;;;;160.23;16.90;;;20.80;73.10;;;;;;5016709;28;20124;-62
2022/06/11 10:12:00;;;;;;;161.70;17.00;;;20.90;72.90;;;;;;5011740;28;20061;-62
2022/06/11 10:14:33;;;;;;;99.47;12.95;;;20.90;72.60;;;;;;5010797;28;20038;-63
2022/06/11 10:17:03;;;;;;;112.22;14.18;;;20.90;72.20;;;;;;5011475;28;20049;-62
2022/06/11 10:19:43;;;;;;;148.25;16.38;;;21.00;71.80;;;;;;5012727;28;20030;-63
2022/06/11 10:22:16;;;;;;;126.25;16.08;;;21.00;71.20;;;;;;4982460;28;20064;-62
2022/06/11 10:24:51;;;;;;;108.57;14.23;;;21.10;71.00;;;;;;5009787;28;20473;-62
2022/06/11 10:27:17;;;;;;;144.53;17.93;;;21.10;70.70;;;;;;5025782;28;20042;-62
2022/06/11 10:29:50;;;;;;;110.80;13.88;;;21.10;70.60;;;;;;5011999;28;21514;-62
2022/06/11 10:32:33;;;;;;;120.07;14.60;;;21.20;70.50;;;;;;4995461;28;20025;-62
2022/06/11 10:35:10;;;;;;;91.47;11.95;;;21.30;69.90;;;;;;5009863;28;20075;-63
2022/06/11 10:37:41;;;;;;;92.63;11.25;;;21.30;69.30;;;;;;5012240;28;20137;-61
2022/06/11 10:40:33;;;;;;;87.95;10.95;;;21.40;69.20;;;;;;4995163;28;20123;-62
2022/06/11 10:43:08;;;;;;;73.53;11.07;;;21.50;68.80;;;;;;5011940;28;20044;-63
2022/06/11 10:45:33;;;;;;;77.78;10.57;;;21.50;68.20;;;;;;4997279;28;20117;-62
2022/06/11 10:48:00;;;;;;;74.78;9.45;;;21.60;67.80;;;;;;5011891;28;20041;-62
2022/06/11 10:50:30;;;;;;;81.30;10.75;;;21.70;67.60;;;;;;5013389;28;20171;-63
2022/06/11 10:53:06;;;;;;;72.57;9.88;;;21.70;67.40;;;;;;5014102;28;20374;-63
2022/06/11 10:55:32;;;;;;;52.35;7.55;;;21.90;67.40;;;;;;5002865;28;20029;-62
2022/06/11 10:57:58;;;;;;;102.88;12.32;;;21.90;67.20;;;;;;5012883;28;20034;-61
2022/06/11 11:00:30;;;;;;;99.15;11.65;;;22.00;67.50;;;;;;5008765;28;20083;-62
2022/06/11 11:03:12;;;;;;;83.55;10.30;;;22.10;68.00;;;;;;4995705;28;20432;-63
2022/06/11 11:06:01;;;;;;;78.43;10.35;;;22.20;68.00;;;;;;5015272;28;20097;-62
2022/06/11 11:08:27;;;;;;;77.65;9.50;;;22.30;67.90;;;;;;5017178;28;20402;-62
2022/06/11 11:10:53;;;;;;;66.40;8.57;;;22.40;68.00;;;;;;5014389;28;20040;-62
2022/06/11 11:13:39;;;;;;;75.22;9.45;;;22.50;67.70;;;;;;5015042;28;20118;-63
2022/06/11 11:16:19;;;;;;;74.20;9.95;;;22.60;67.60;;;;;;5011465;28;20673;-62
2022/06/11 11:19:00;;;;;;;111.03;10.82;;;22.70;67.00;;;;;;5011348;28;20121;-62
2022/06/11 11:21:54;;;;;;;86.25;10.82;;;22.90;66.80;;;;;;5006739;28;20026;-62
2022/06/11 11:24:36;;;;;;;77.50;9.90;;;23.00;66.50;;;;;;4979284;28;20449;-62
2022/06/11 11:27:22;;;;;;;54.58;7.95;;;23.10;66.30;;;;;;5000557;28;22107;-62
2022/06/11 11:29:59;;;;;;;54.63;6.70;;;23.20;65.90;;;;;;4985517;28;20029;-62
2022/06/11 11:32:34;;;;;;;85.22;9.18;;;23.30;65.00;;;;;;5009539;28;20041;-61
2022/06/11 11:35:31;;;;;;;81.32;9.60;;;23.40;64.90;;;;;;5015324;28;20018;-62
2022/06/11 11:37:59;;;;;;;60.85;8.75;;;23.50;64.80;;;;;;5012239;28;20058;-62
2022/06/11 11:40:30;;;;;;;42.85;6.90;;;23.60;64.20;;;;;;5013481;28;20029;-62
2022/06/11 11:42:57;;;;;;;55.70;7.32;;;23.70;63.40;;;;;;5005476;28;20109;-63
2022/06/11 11:45:25;;;;;;;53.03;6.55;;;23.80;63.10;;;;;;5013264;28;20441;-62
2022/06/11 11:47:59;;;;;;;41.03;5.38;;;23.80;62.60;;;;;;5012009;28;20033;-61
2022/06/11 11:50:29;;;;;;;42.58;5.57;;;23.90;62.30;;;;;;5010285;28;20036;-63
2022/06/11 11:53:28;;;;;;;39.08;4.88;;;23.90;61.60;;;;;;4996019;28;20033;-62
2022/06/11 11:55:59;;;;;;;44.60;4.90;;;24.00;61.50;;;;;;5005093;28;20111;-63
2022/06/11 11:58:33;;;;;;;34.55;5.00;;;24.00;60.80;;;;;;5009432;28;20045;-62
2022/06/11 12:01:21;;;;;;;47.17;6.30;;;24.10;61.10;;;;;;5017399;28;20032;-62
2022/06/11 12:03:51;;;;;;;34.50;4.55;;;24.10;61.00;;;;;;5016230;28;20095;-62
2022/06/11 12:06:26;;;;;;;61.50;6.28;;;24.20;60.50;;;;;;5018813;28;20057;-62
2022/06/11 12:08:52;;;;;;;64.88;7.35;;;24.40;60.80;;;;;;5016980;28;20021;-62
2022/06/11 12:11:25;;;;;;;42.72;5.30;;;24.40;60.40;;;;;;5015341;28;20053;-62
2022/06/11 12:13:52;;;;;;;50.53;6.10;;;24.50;60.00;;;;;;5015198;28;20116;-63
2022/06/11 12:16:30;;;;;;;27.15;4.82;;;24.50;59.70;;;;;;5008694;28;20160;-62
2022/06/11 12:19:06;;;;;;;38.20;4.95;;;24.60;59.60;;;;;;5013233;28;20034;-62
2022/06/11 12:21:34;;;;;;;37.47;4.80;;;24.60;59.30;;;;;;5016199;28;20111;-62
2022/06/11 12:24:09;;;;;;;26.40;4.18;;;24.70;59.30;;;;;;5012237;28;20029;-62
2022/06/11 12:26:37;;;;;;;51.97;6.38;;;24.80;58.90;;;;;;5009293;28;20064;-63
2022/06/11 12:29:07;;;;;;;36.25;4.97;;;24.90;58.60;;;;;;5015054;28;20072;-62
2022/06/11 12:31:33;;;;;;;49.10;5.63;;;24.90;58.50;;;;;;5014773;28;20037;-62
2022/06/11 12:33:59;;;;;;;37.17;5.80;;;25.00;58.40;;;;;;4995675;28;20041;-62
2022/06/11 12:36:42;;;;;;;59.20;6.53;;;25.10;58.30;;;;;;5013475;28;20091;-62
2022/06/11 12:39:30;;;;;;;69.28;7.68;;;25.20;58.40;;;;;;5014986;28;20104;-63
2022/06/11 12:42:09;;;;;;;49.63;5.80;;;25.30;57.70;;;;;;5016811;28;20029;-62
2022/06/11 12:44:50;;;;;;;38.85;5.18;;;25.30;57.00;;;;;;5011751;28;20037;-62
2022/06/11 12:47:30;;;;;;;44.20;5.70;;;25.40;57.30;;;;;;5017939;28;20029;-63
2022/06/11 12:49:59;;;;;;;48.70;6.78;;;25.60;57.30;;;;;;5000036;28;20385;-63
2022/06/11 12:52:33;;;;;;;51.08;5.57;;;25.60;57.20;;;;;;5017678;28;20365;-63
2022/06/11 12:55:38;;;;;;;36.65;4.78;;;25.70;56.10;;;;;;5016004;28;20120;-62
2022/06/11 12:58:16;;;;;;;39.90;4.93;;;25.70;55.90;;;;;;5017952;28;20049;-62
2022/06/11 13:00:56;;;;;;;46.25;5.97;;;25.80;55.90;;;;;;5002568;28;20381;-63
2022/06/11 13:03:59;;;;;;;52.60;6.18;;;25.90;56.00;;;;;;4996790;28;21974;-62